3K3

Syracuse-Hamilton County Municipal Airport

Syracuse, Kansas, USA
METAR K3K3 160515Z AUTO 00000KT 10SM CLR M02/M03 A3011 RMK AO2
Observed Flight Rules
Jan-16 @ 05:15 UTC (40 minutes ago) Visual Flight Rules
Visibility Clouds
10 miles
  • Clear skies
Temperatures Readings
Current -2°C / 28°F
Dewpoint -3°C / 27°F
Humidity 93%
Altimeter 30.11" Hg
Pressure 1019.62 hPa
Elevation 1013
METAR K3K3 160515Z AUTO 00000KT 10SM CLR M02/M03 A3011 RMK AO2
Observed Flight Rules
Jan-16 @ 05:15 UTC
(40 minutes ago)
VFR
Clouds
  • Clear skies
Temperature Dewpoint
-2°C / 28°F -3°C / 27°F
Humidity Altimeter Pressure
93% 30.11" Hg 1019.62 hPa